createdAt,value
2023-02-20T00:00:57.032Z,8.32
2023-02-20T00:10:57.305Z,8.30
2023-02-20T00:20:57.402Z,8.26
2023-02-20T00:30:57.836Z,8.18
2023-02-20T00:40:57.824Z,8.17
2023-02-20T00:50:57.909Z,8.14
2023-02-20T01:00:58.149Z,8.12
2023-02-20T01:10:58.342Z,8.12
2023-02-20T01:20:58.562Z,8.07
2023-02-20T01:30:58.815Z,8.10
2023-02-20T01:40:58.923Z,8.00
2023-02-20T01:50:59.030Z,8.03
2023-02-20T02:00:59.284Z,8.04
2023-02-20T02:10:59.368Z,8.12
2023-02-20T02:20:59.682Z,8.08
2023-02-20T02:30:59.840Z,8.03
2023-02-20T02:40:59.946Z,7.89
2023-02-20T02:51:00.018Z,7.87
2023-02-20T03:01:00.361Z,7.85
2023-02-20T03:11:00.356Z,7.77
2023-02-20T03:21:00.605Z,7.85
2023-02-20T03:31:00.793Z,7.69
2023-02-20T03:41:01.061Z,7.71
2023-02-20T03:51:01.135Z,7.99
2023-02-20T04:01:01.448Z,8.17
2023-02-20T04:11:01.550Z,8.10
2023-02-20T04:21:01.793Z,7.99
2023-02-20T04:31:02.072Z,7.69
2023-02-20T04:41:02.187Z,7.35
2023-02-20T04:51:03.182Z,7.26
2023-02-20T05:01:02.603Z,7.15
2023-02-20T05:11:02.591Z,6.98
2023-02-20T05:21:02.829Z,6.95
2023-02-20T05:31:03.061Z,6.73
2023-02-20T05:41:03.187Z,6.66
2023-02-20T05:51:03.249Z,6.46
2023-02-20T06:01:03.472Z,6.59
2023-02-20T06:11:03.654Z,6.54
2023-02-20T06:21:03.873Z,6.66
2023-02-20T06:31:04.159Z,6.79
2023-02-20T06:41:04.305Z,6.79
2023-02-20T06:51:04.378Z,6.79
2023-02-20T07:01:04.697Z,6.69
2023-02-20T07:11:04.788Z,6.69
2023-02-20T07:21:05.035Z,6.84
2023-02-20T07:31:05.282Z,6.90
2023-02-20T07:41:05.422Z,7.17
2023-02-20T07:51:05.509Z,7.42
2023-02-20T08:01:05.928Z,7.53
2023-02-20T08:11:09.897Z,8.37
2023-02-20T08:21:05.960Z,8.76
2023-02-20T08:31:06.194Z,9.05
2023-02-20T08:41:06.320Z,9.35
2023-02-20T08:51:06.675Z,9.53
2023-02-20T09:01:06.595Z,9.83
2023-02-20T09:11:08.592Z,10.33
2023-02-20T09:21:07.224Z,13.27
2023-02-20T09:31:07.059Z,13.38
2023-02-20T09:41:07.300Z,11.89
2023-02-20T09:51:07.480Z,12.27
2023-02-20T10:01:07.711Z,12.44
2023-02-20T10:11:09.423Z,12.04
2023-02-20T10:21:08.029Z,12.60
2023-02-20T10:31:08.269Z,13.63
2023-02-20T10:41:08.370Z,13.27
2023-02-20T10:51:08.797Z,13.80
2023-02-20T11:01:08.840Z,12.67
2023-02-20T11:11:08.843Z,13.71
2023-02-20T11:21:09.057Z,14.20
2023-02-20T11:31:09.373Z,14.17
2023-02-20T11:41:09.498Z,13.84
2023-02-20T11:51:09.673Z,14.50
2023-02-20T12:01:09.904Z,14.52
2023-02-20T12:11:10.064Z,14.71
2023-02-20T12:21:10.278Z,14.81
2023-02-20T12:31:10.593Z,14.52
2023-02-20T12:41:10.596Z,14.78
2023-02-20T12:51:10.774Z,14.99
2023-02-20T13:01:11.411Z,15.23
2023-02-20T13:11:11.179Z,15.84
2023-02-20T13:21:11.392Z,15.74
2023-02-20T13:31:11.687Z,16.15
2023-02-20T13:41:11.798Z,16.81
2023-02-20T13:51:11.984Z,17.22
2023-02-20T14:01:12.324Z,17.25
2023-02-20T14:11:12.398Z,17.20
2023-02-20T14:21:14.407Z,17.46
2023-02-20T14:31:13.062Z,17.38
2023-02-20T14:41:12.955Z,17.51
2023-02-20T14:51:13.306Z,17.46
2023-02-20T15:01:13.342Z,17.04
2023-02-20T15:11:13.575Z,17.41
2023-02-20T15:21:13.549Z,16.85
2023-02-20T15:31:13.824Z,16.42
2023-02-20T15:41:14.292Z,15.99
2023-02-20T15:51:14.758Z,15.35
2023-02-20T16:01:14.376Z,14.94
2023-02-20T16:11:15.085Z,14.68
2023-02-20T16:21:14.706Z,14.38
2023-02-20T16:31:14.998Z,13.79
2023-02-20T16:41:15.636Z,13.59
2023-02-20T16:51:15.068Z,13.09
2023-02-20T17:01:15.686Z,12.02
2023-02-20T17:11:15.634Z,10.78
2023-02-20T17:21:15.726Z,10.04
2023-02-20T17:31:16.120Z,10.18
2023-02-20T17:41:16.137Z,10.51
2023-02-20T17:51:16.000Z,10.74
2023-02-20T18:01:16.534Z,10.09
2023-02-20T18:11:16.422Z,9.79
2023-02-20T18:21:16.599Z,8.88
2023-02-20T18:31:17.168Z,8.60
2023-02-20T18:41:16.903Z,9.96
2023-02-20T18:51:17.028Z,10.24
2023-02-20T19:01:17.410Z,10.40
2023-02-20T19:11:17.284Z,10.30
2023-02-20T19:21:17.474Z,9.89
2023-02-20T19:31:17.921Z,9.99
2023-02-20T19:41:18.015Z,9.85
2023-02-20T19:51:17.982Z,9.60
2023-02-20T20:01:18.201Z,9.38
2023-02-20T20:11:18.262Z,9.42
2023-02-20T20:21:18.403Z,9.99
2023-02-20T20:31:18.681Z,9.76
2023-02-20T20:41:18.816Z,9.52
2023-02-20T20:51:18.894Z,9.24
2023-02-20T21:01:19.104Z,9.27
2023-02-20T21:11:19.288Z,9.16
2023-02-20T21:21:19.418Z,8.66
2023-02-20T21:31:19.647Z,8.42
2023-02-20T21:41:19.753Z,8.65
2023-02-20T21:51:19.944Z,7.89
2023-02-20T22:01:20.229Z,7.85
2023-02-20T22:11:20.306Z,7.02
2023-02-20T22:21:20.572Z,7.38
2023-02-20T22:31:20.801Z,7.29
2023-02-20T22:41:21.184Z,7.01
2023-02-20T22:51:21.034Z,6.76
2023-02-20T23:01:21.281Z,6.53
2023-02-20T23:11:21.486Z,6.04
2023-02-20T23:21:21.622Z,5.88
2023-02-20T23:31:21.833Z,5.50
2023-02-20T23:41:21.966Z,5.66
2023-02-20T23:51:22.056Z,5.45
